sensor_id;sensor_type;location;lat;lon;timestamp;temperature;humidity
2729;DHT22;1372;47.956;7.830;2024-01-15T00:02:21;-0.70;99.90
2729;DHT22;1372;47.956;7.830;2024-01-15T00:04:52;-0.80;99.90
2729;DHT22;1372;47.956;7.830;2024-01-15T00:07:21;-0.80;99.90
2729;DHT22;1372;47.956;7.830;2024-01-15T00:09:51;-0.90;99.90
2729;DHT22;1372;47.956;7.830;2024-01-15T00:12:20;-0.90;99.90
2729;DHT22;1372;47.956;7.830;2024-01-15T00:14:49;-0.80;99.90
2729;DHT22;1372;47.956;7.830;2024-01-15T00:17:18;-0.80;99.90
2729;DHT22;1372;47.956;7.830;2024-01-15T00:19:46;-0.80;99.90
2729;DHT22;1372;47.956;7.830;2024-01-15T00:22:15;-0.80;99.90
2729;DHT22;1372;47.956;7.830;2024-01-15T00:24:44;-0.70;99.90
2729;DHT22;1372;47.956;7.830;2024-01-15T00:27:14;-0.70;99.90
2729;DHT22;1372;47.956;7.830;2024-01-15T00:29:43;-0.80;99.90
2729;DHT22;1372;47.956;7.830;2024-01-15T00:32:12;-0.90;99.90
2729;DHT22;1372;47.956;7.830;2024-01-15T00:34:40;-1.00;99.90
2729;DHT22;1372;47.956;7.830;2024-01-15T00:37:09;-1.00;99.90
2729;DHT22;1372;47.956;7.830;2024-01-15T00:39:38;-1.10;99.90
2729;DHT22;1372;47.956;7.830;2024-01-15T00:42:13;-1.10;99.90
2729;DHT22;1372;47.956;7.830;2024-01-15T00:44:42;-1.10;99.90
2729;DHT22;1372;47.956;7.830;2024-01-15T00:47:11;-1.00;99.90
2729;DHT22;1372;47.956;7.830;2024-01-15T00:49:40;-1.20;99.90
2729;DHT22;1372;47.956;7.830;2024-01-15T00:52:09;-1.10;99.90
2729;DHT22;1372;47.956;7.830;2024-01-15T00:54:38;-1.00;99.90
2729;DHT22;1372;47.956;7.830;2024-01-15T00:57:07;-1.00;99.90
2729;DHT22;1372;47.956;7.830;2024-01-15T00:59:37;-1.20;99.90
2729;DHT22;1372;47.956;7.830;2024-01-15T01:02:06;-1.40;99.90
2729;DHT22;1372;47.956;7.830;2024-01-15T01:04:35;-1.40;99.90
2729;DHT22;1372;47.956;7.830;2024-01-15T01:07:04;-1.40;99.90
2729;DHT22;1372;47.956;7.830;2024-01-15T01:09:33;-1.40;99.90
2729;DHT22;1372;47.956;7.830;2024-01-15T01:12:02;-1.40;99.90
2729;DHT22;1372;47.956;7.830;2024-01-15T01:14:32;-1.40;99.90
2729;DHT22;1372;47.956;7.830;2024-01-15T01:17:05;-1.30;99.90
2729;DHT22;1372;47.956;7.830;2024-01-15T01:19:33;-1.30;99.90
2729;DHT22;1372;47.956;7.830;2024-01-15T01:22:02;-1.40;99.90
2729;DHT22;1372;47.956;7.830;2024-01-15T01:24:31;-1.60;99.90
2729;DHT22;1372;47.956;7.830;2024-01-15T01:27:00;-1.60;99.90
2729;DHT22;1372;47.956;7.830;2024-01-15T01:29:29;-1.70;99.90
2729;DHT22;1372;47.956;7.830;2024-01-15T01:31:57;-1.70;99.90
2729;DHT22;1372;47.956;7.830;2024-01-15T01:34:28;-1.60;99.90
2729;DHT22;1372;47.956;7.830;2024-01-15T01:37:00;-1.60;99.90
2729;DHT22;1372;47.956;7.830;2024-01-15T01:39:31;-1.60;99.90
2729;DHT22;1372;47.956;7.830;2024-01-15T01:42:03;-1.70;99.90
2729;DHT22;1372;47.956;7.830;2024-01-15T01:44:33;-1.80;99.90
2729;DHT22;1372;47.956;7.830;2024-01-15T01:47:02;-1.80;99.90
2729;DHT22;1372;47.956;7.830;2024-01-15T01:49:34;-1.70;99.90
2729;DHT22;1372;47.956;7.830;2024-01-15T01:52:05;-1.60;99.90
2729;DHT22;1372;47.956;7.830;2024-01-15T01:54:35;-1.30;99.90
2729;DHT22;1372;47.956;7.830;2024-01-15T01:57:06;-1.20;99.90
2729;DHT22;1372;47.956;7.830;2024-01-15T01:59:36;-1.10;99.90
2729;DHT22;1372;47.956;7.830;2024-01-15T02:02:06;-1.00;99.90
2729;DHT22;1372;47.956;7.830;2024-01-15T02:04:36;-0.90;99.90
2729;DHT22;1372;47.956;7.830;2024-01-15T02:07:08;-0.80;99.90
2729;DHT22;1372;47.956;7.830;2024-01-15T02:09:37;-0.70;99.90
2729;DHT22;1372;47.956;7.830;2024-01-15T02:12:07;-0.70;99.90
2729;DHT22;1372;47.956;7.830;2024-01-15T02:14:36;-0.70;99.90
2729;DHT22;1372;47.956;7.830;2024-01-15T02:17:06;-0.60;99.90
2729;DHT22;1372;47.956;7.830;2024-01-15T02:19:36;-0.60;99.90
2729;DHT22;1372;47.956;7.830;2024-01-15T02:22:06;-0.60;99.90
2729;DHT22;1372;47.956;7.830;2024-01-15T02:24:37;-0.50;99.90
2729;DHT22;1372;47.956;7.830;2024-01-15T02:27:05;-0.40;99.90
2729;DHT22;1372;47.956;7.830;2024-01-15T02:29:35;-0.30;99.90
2729;DHT22;1372;47.956;7.830;2024-01-15T02:32:05;-0.30;99.90
2729;DHT22;1372;47.956;7.830;2024-01-15T02:34:34;-0.30;99.90
2729;DHT22;1372;47.956;7.830;2024-01-15T02:37:03;-0.20;99.90
2729;DHT22;1372;47.956;7.830;2024-01-15T02:39:32;-0.10;99.90
2729;DHT22;1372;47.956;7.830;2024-01-15T02:42:03;-0.10;99.90
2729;DHT22;1372;47.956;7.830;2024-01-15T02:44:32;-0.20;99.90
2729;DHT22;1372;47.956;7.830;2024-01-15T02:47:00;-0.30;99.90
2729;DHT22;1372;47.956;7.830;2024-01-15T02:49:29;-0.40;99.90
2729;DHT22;1372;47.956;7.830;2024-01-15T02:51:59;-0.40;99.90
2729;DHT22;1372;47.956;7.830;2024-01-15T02:54:30;-0.30;99.90
2729;DHT22;1372;47.956;7.830;2024-01-15T02:56:59;-0.30;99.90
2729;DHT22;1372;47.956;7.830;2024-01-15T02:59:29;-0.40;99.90
2729;DHT22;1372;47.956;7.830;2024-01-15T03:01:57;-0.30;99.90
2729;DHT22;1372;47.956;7.830;2024-01-15T03:04:26;-0.30;99.90
2729;DHT22;1372;47.956;7.830;2024-01-15T03:06:55;-0.30;99.90
2729;DHT22;1372;47.956;7.830;2024-01-15T03:09:24;-0.40;99.90
2729;DHT22;1372;47.956;7.830;2024-01-15T03:11:53;-0.40;99.90
2729;DHT22;1372;47.956;7.830;2024-01-15T03:14:21;-0.50;99.90
2729;DHT22;1372;47.956;7.830;2024-01-15T03:16:56;-0.50;99.90
2729;DHT22;1372;47.956;7.830;2024-01-15T03:19:25;-0.40;99.90
2729;DHT22;1372;47.956;7.830;2024-01-15T03:21:54;-0.40;99.90
2729;DHT22;1372;47.956;7.830;2024-01-15T03:24:25;-0.40;99.90
2729;DHT22;1372;47.956;7.830;2024-01-15T03:26:53;-0.50;99.90
2729;DHT22;1372;47.956;7.830;2024-01-15T03:29:22;-0.50;99.90
2729;DHT22;1372;47.956;7.830;2024-01-15T03:31:51;-0.60;99.90
2729;DHT22;1372;47.956;7.830;2024-01-15T03:34:21;-0.50;99.90
2729;DHT22;1372;47.956;7.830;2024-01-15T03:36:50;-0.50;99.90
2729;DHT22;1372;47.956;7.830;2024-01-15T03:39:19;-0.40;99.90
2729;DHT22;1372;47.956;7.830;2024-01-15T03:41:48;-0.40;99.90
2729;DHT22;1372;47.956;7.830;2024-01-15T03:44:16;-0.30;99.90
2729;DHT22;1372;47.956;7.830;2024-01-15T03:46:47;-0.20;99.90
2729;DHT22;1372;47.956;7.830;2024-01-15T03:49:16;-0.20;99.90
2729;DHT22;1372;47.956;7.830;2024-01-15T03:51:47;-0.10;99.90
2729;DHT22;1372;47.956;7.830;2024-01-15T03:54:16;-0.10;99.90
2729;DHT22;1372;47.956;7.830;2024-01-15T03:56:46;-0.10;99.90
2729;DHT22;1372;47.956;7.830;2024-01-15T03:59:15;-0.20;99.90
2729;DHT22;1372;47.956;7.830;2024-01-15T04:01:48;-0.20;99.90
2729;DHT22;1372;47.956;7.830;2024-01-15T04:04:18;-0.20;99.90
2729;DHT22;1372;47.956;7.830;2024-01-15T04:06:48;-0.20;99.90
2729;DHT22;1372;47.956;7.830;2024-01-15T04:09:17;-0.20;99.90
2729;DHT22;1372;47.956;7.830;2024-01-15T04:11:46;-0.20;99.90
2729;DHT22;1372;47.956;7.830;2024-01-15T04:14:15;-0.10;99.90
2729;DHT22;1372;47.956;7.830;2024-01-15T04:16:43;-0.10;99.90
2729;DHT22;1372;47.956;7.830;2024-01-15T04:19:12;0.00;99.90
2729;DHT22;1372;47.956;7.830;2024-01-15T04:21:41;0.00;99.90
2729;DHT22;1372;47.956;7.830;2024-01-15T04:24:11;-0.10;99.90
2729;DHT22;1372;47.956;7.830;2024-01-15T04:26:40;-0.10;99.90
2729;DHT22;1372;47.956;7.830;2024-01-15T04:29:10;-0.10;99.90
2729;DHT22;1372;47.956;7.830;2024-01-15T04:31:39;-0.10;99.90
2729;DHT22;1372;47.956;7.830;2024-01-15T04:34:08;-0.10;99.90
2729;DHT22;1372;47.956;7.830;2024-01-15T04:36:39;-0.10;99.90
2729;DHT22;1372;47.956;7.830;2024-01-15T04:39:10;0.00;99.90
2729;DHT22;1372;47.956;7.830;2024-01-15T04:41:39;0.00;99.90
2729;DHT22;1372;47.956;7.830;2024-01-15T04:44:08;0.10;99.90
2729;DHT22;1372;47.956;7.830;2024-01-15T04:46:39;0.10;99.90
2729;DHT22;1372;47.956;7.830;2024-01-15T04:49:11;0.00;99.90
2729;DHT22;1372;47.956;7.830;2024-01-15T04:51:40;-0.10;99.90
2729;DHT22;1372;47.956;7.830;2024-01-15T04:54:10;-0.10;99.90
2729;DHT22;1372;47.956;7.830;2024-01-15T04:56:39;-0.10;99.90
2729;DHT22;1372;47.956;7.830;2024-01-15T04:59:08;0.00;99.90
2729;DHT22;1372;47.956;7.830;2024-01-15T05:01:37;0.00;99.90
2729;DHT22;1372;47.956;7.830;2024-01-15T05:04:06;0.10;99.90
2729;DHT22;1372;47.956;7.830;2024-01-15T05:06:34;0.00;99.90
2729;DHT22;1372;47.956;7.830;2024-01-15T05:09:03;0.00;99.90
2729;DHT22;1372;47.956;7.830;2024-01-15T05:11:34;0.10;99.90
2729;DHT22;1372;47.956;7.830;2024-01-15T05:14:02;0.00;99.90
2729;DHT22;1372;47.956;7.830;2024-01-15T05:16:31;0.10;99.90
2729;DHT22;1372;47.956;7.830;2024-01-15T05:19:02;-0.10;99.90
2729;DHT22;1372;47.956;7.830;2024-01-15T05:21:31;-0.20;99.90
2729;DHT22;1372;47.956;7.830;2024-01-15T05:23:59;-0.30;99.90
2729;DHT22;1372;47.956;7.830;2024-01-15T05:26:28;-0.30;99.90
2729;DHT22;1372;47.956;7.830;2024-01-15T05:28:58;-0.20;99.90
2729;DHT22;1372;47.956;7.830;2024-01-15T05:31:27;-0.20;99.90
2729;DHT22;1372;47.956;7.830;2024-01-15T05:33:56;-0.10;99.90
2729;DHT22;1372;47.956;7.830;2024-01-15T05:36:27;0.00;99.90
2729;DHT22;1372;47.956;7.830;2024-01-15T05:38:56;0.00;99.90
2729;DHT22;1372;47.956;7.830;2024-01-15T05:41:25;0.00;99.90
2729;DHT22;1372;47.956;7.830;2024-01-15T05:43:54;0.10;99.90
2729;DHT22;1372;47.956;7.830;2024-01-15T05:46:24;0.30;99.90
2729;DHT22;1372;47.956;7.830;2024-01-15T05:48:53;0.30;99.90
2729;DHT22;1372;47.956;7.830;2024-01-15T05:51:22;0.30;99.90
2729;DHT22;1372;47.956;7.830;2024-01-15T05:53:51;0.40;99.90
2729;DHT22;1372;47.956;7.830;2024-01-15T05:56:20;0.50;99.90
2729;DHT22;1372;47.956;7.830;2024-01-15T05:58:49;0.50;99.90
2729;DHT22;1372;47.956;7.830;2024-01-15T06:01:18;0.50;99.90
2729;DHT22;1372;47.956;7.830;2024-01-15T06:03:48;0.50;99.90
2729;DHT22;1372;47.956;7.830;2024-01-15T06:06:17;0.50;99.90
2729;DHT22;1372;47.956;7.830;2024-01-15T06:08:46;0.50;99.90
2729;DHT22;1372;47.956;7.830;2024-01-15T06:11:15;0.50;99.90
2729;DHT22;1372;47.956;7.830;2024-01-15T06:13:44;0.50;99.90
2729;DHT22;1372;47.956;7.830;2024-01-15T06:16:14;0.50;99.90
2729;DHT22;1372;47.956;7.830;2024-01-15T06:18:43;0.50;99.90
2729;DHT22;1372;47.956;7.830;2024-01-15T06:21:14;0.50;99.90
2729;DHT22;1372;47.956;7.830;2024-01-15T06:23:46;0.50;99.90
2729;DHT22;1372;47.956;7.830;2024-01-15T06:26:14;0.50;99.90
2729;DHT22;1372;47.956;7.830;2024-01-15T06:28:43;0.50;99.90
2729;DHT22;1372;47.956;7.830;2024-01-15T06:31:12;0.50;99.90
2729;DHT22;1372;47.956;7.830;2024-01-15T06:33:41;0.60;99.90
2729;DHT22;1372;47.956;7.830;2024-01-15T06:36:10;0.60;99.90
2729;DHT22;1372;47.956;7.830;2024-01-15T06:38:43;0.50;99.90
2729;DHT22;1372;47.956;7.830;2024-01-15T06:41:12;0.50;99.90
2729;DHT22;1372;47.956;7.830;2024-01-15T06:43:41;0.60;99.90
2729;DHT22;1372;47.956;7.830;2024-01-15T06:46:09;0.60;99.90
2729;DHT22;1372;47.956;7.830;2024-01-15T06:48:38;0.50;99.90
2729;DHT22;1372;47.956;7.830;2024-01-15T06:51:07;0.50;99.90
2729;DHT22;1372;47.956;7.830;2024-01-15T06:53:36;0.50;99.90
2729;DHT22;1372;47.956;7.830;2024-01-15T06:56:06;0.60;99.90
2729;DHT22;1372;47.956;7.830;2024-01-15T06:58:36;0.60;99.90
2729;DHT22;1372;47.956;7.830;2024-01-15T07:01:07;0.50;99.90
2729;DHT22;1372;47.956;7.830;2024-01-15T07:03:36;0.50;99.90
2729;DHT22;1372;47.956;7.830;2024-01-15T07:06:05;0.40;99.90
2729;DHT22;1372;47.956;7.830;2024-01-15T07:08:34;0.30;99.90
2729;DHT22;1372;47.956;7.830;2024-01-15T07:11:04;0.40;99.90
2729;DHT22;1372;47.956;7.830;2024-01-15T07:13:35;0.50;99.90
2729;DHT22;1372;47.956;7.830;2024-01-15T07:16:06;0.50;99.90
2729;DHT22;1372;47.956;7.830;2024-01-15T07:18:35;0.60;99.90
2729;DHT22;1372;47.956;7.830;2024-01-15T07:21:04;0.60;99.90
2729;DHT22;1372;47.956;7.830;2024-01-15T07:23:35;0.50;99.90
2729;DHT22;1372;47.956;7.830;2024-01-15T07:26:06;0.50;99.90
2729;DHT22;1372;47.956;7.830;2024-01-15T07:28:35;0.50;99.90
2729;DHT22;1372;47.956;7.830;2024-01-15T07:31:03;0.50;99.90
2729;DHT22;1372;47.956;7.830;2024-01-15T07:33:33;0.50;99.90
2729;DHT22;1372;47.956;7.830;2024-01-15T07:36:02;0.60;99.90
2729;DHT22;1372;47.956;7.830;2024-01-15T07:38:31;0.60;99.90
2729;DHT22;1372;47.956;7.830;2024-01-15T07:41:03;0.70;99.90
2729;DHT22;1372;47.956;7.830;2024-01-15T07:43:33;0.70;99.90
2729;DHT22;1372;47.956;7.830;2024-01-15T07:46:04;0.70;99.90
2729;DHT22;1372;47.956;7.830;2024-01-15T07:48:34;0.70;99.90
2729;DHT22;1372;47.956;7.830;2024-01-15T07:51:03;0.80;99.90
2729;DHT22;1372;47.956;7.830;2024-01-15T07:53:32;0.90;99.90
2729;DHT22;1372;47.956;7.830;2024-01-15T07:56:01;0.90;99.90
2729;DHT22;1372;47.956;7.830;2024-01-15T07:58:31;1.00;99.90
2729;DHT22;1372;47.956;7.830;2024-01-15T08:01:01;1.10;99.90
2729;DHT22;1372;47.956;7.830;2024-01-15T08:03:30;1.10;99.90
2729;DHT22;1372;47.956;7.830;2024-01-15T08:05:59;1.10;99.90
2729;DHT22;1372;47.956;7.830;2024-01-15T08:08:28;1.20;99.90
2729;DHT22;1372;47.956;7.830;2024-01-15T08:10:57;1.20;99.90
2729;DHT22;1372;47.956;7.830;2024-01-15T08:13:26;1.20;99.90
2729;DHT22;1372;47.956;7.830;2024-01-15T08:15:57;1.20;99.90
2729;DHT22;1372;47.956;7.830;2024-01-15T08:18:42;1.30;99.90
2729;DHT22;1372;47.956;7.830;2024-01-15T08:21:11;1.30;99.90
2729;DHT22;1372;47.956;7.830;2024-01-15T08:23:40;1.40;99.90
2729;DHT22;1372;47.956;7.830;2024-01-15T08:26:10;1.50;99.90
2729;DHT22;1372;47.956;7.830;2024-01-15T08:28:39;1.50;99.90
2729;DHT22;1372;47.956;7.830;2024-01-15T08:31:09;1.60;99.90
2729;DHT22;1372;47.956;7.830;2024-01-15T08:33:38;1.60;99.90
2729;DHT22;1372;47.956;7.830;2024-01-15T08:36:07;1.60;99.90
2729;DHT22;1372;47.956;7.830;2024-01-15T08:38:36;1.70;99.90
2729;DHT22;1372;47.956;7.830;2024-01-15T08:41:05;1.70;99.90
2729;DHT22;1372;47.956;7.830;2024-01-15T08:43:35;1.80;99.90
2729;DHT22;1372;47.956;7.830;2024-01-15T08:46:04;1.80;99.90
2729;DHT22;1372;47.956;7.830;2024-01-15T08:48:34;1.80;99.90
2729;DHT22;1372;47.956;7.830;2024-01-15T08:51:04;1.90;99.90
2729;DHT22;1372;47.956;7.830;2024-01-15T08:53:33;1.80;99.90
2729;DHT22;1372;47.956;7.830;2024-01-15T08:56:02;1.80;99.90
2729;DHT22;1372;47.956;7.830;2024-01-15T08:58:31;1.90;99.90
2729;DHT22;1372;47.956;7.830;2024-01-15T09:01:00;1.90;99.90
2729;DHT22;1372;47.956;7.830;2024-01-15T09:03:29;2.00;99.90
2729;DHT22;1372;47.956;7.830;2024-01-15T09:06:02;2.10;99.90
2729;DHT22;1372;47.956;7.830;2024-01-15T09:08:31;2.10;99.90
2729;DHT22;1372;47.956;7.830;2024-01-15T09:11:00;2.20;99.90
2729;DHT22;1372;47.956;7.830;2024-01-15T09:13:32;2.20;99.90
2729;DHT22;1372;47.956;7.830;2024-01-15T09:16:01;2.10;99.90
2729;DHT22;1372;47.956;7.830;2024-01-15T09:18:30;2.10;99.90
2729;DHT22;1372;47.956;7.830;2024-01-15T09:21:01;2.10;99.90
2729;DHT22;1372;47.956;7.830;2024-01-15T09:23:31;2.10;99.90
2729;DHT22;1372;47.956;7.830;2024-01-15T09:26:02;2.20;99.90
2729;DHT22;1372;47.956;7.830;2024-01-15T09:28:31;2.20;99.90
2729;DHT22;1372;47.956;7.830;2024-01-15T09:31:01;2.30;99.90
2729;DHT22;1372;47.956;7.830;2024-01-15T09:33:30;2.30;99.90
2729;DHT22;1372;47.956;7.830;2024-01-15T09:36:03;2.50;99.90
2729;DHT22;1372;47.956;7.830;2024-01-15T09:38:33;2.50;99.90
2729;DHT22;1372;47.956;7.830;2024-01-15T09:41:02;2.60;99.90
2729;DHT22;1372;47.956;7.830;2024-01-15T09:43:33;2.60;99.90
2729;DHT22;1372;47.956;7.830;2024-01-15T09:46:03;2.70;99.90
2729;DHT22;1372;47.956;7.830;2024-01-15T09:48:40;2.80;99.90
2729;DHT22;1372;47.956;7.830;2024-01-15T09:51:10;2.90;99.90
2729;DHT22;1372;47.956;7.830;2024-01-15T09:53:41;2.90;99.90
2729;DHT22;1372;47.956;7.830;2024-01-15T09:56:10;2.90;99.90
2729;DHT22;1372;47.956;7.830;2024-01-15T09:58:40;2.90;99.90
2729;DHT22;1372;47.956;7.830;2024-01-15T10:01:10;3.00;99.90
2729;DHT22;1372;47.956;7.830;2024-01-15T10:03:42;3.00;99.90
2729;DHT22;1372;47.956;7.830;2024-01-15T10:06:15;3.00;99.90
2729;DHT22;1372;47.956;7.830;2024-01-15T10:08:50;3.00;99.90
2729;DHT22;1372;47.956;7.830;2024-01-15T10:11:20;3.00;99.90
2729;DHT22;1372;47.956;7.830;2024-01-15T10:13:53;3.10;99.90
2729;DHT22;1372;47.956;7.830;2024-01-15T10:16:25;3.10;99.90
2729;DHT22;1372;47.956;7.830;2024-01-15T10:18:56;3.20;99.90
2729;DHT22;1372;47.956;7.830;2024-01-15T10:21:26;3.20;99.90
2729;DHT22;1372;47.956;7.830;2024-01-15T10:23:55;3.20;99.90
2729;DHT22;1372;47.956;7.830;2024-01-15T10:26:25;3.30;99.90
2729;DHT22;1372;47.956;7.830;2024-01-15T10:28:56;3.30;99.90
2729;DHT22;1372;47.956;7.830;2024-01-15T10:31:25;3.30;99.90
2729;DHT22;1372;47.956;7.830;2024-01-15T10:34:10;3.30;99.90
2729;DHT22;1372;47.956;7.830;2024-01-15T10:36:41;3.20;99.90
2729;DHT22;1372;47.956;7.830;2024-01-15T10:39:15;3.30;99.90
2729;DHT22;1372;47.956;7.830;2024-01-15T10:41:46;3.30;99.90
2729;DHT22;1372;47.956;7.830;2024-01-15T10:44:14;3.20;99.90
2729;DHT22;1372;47.956;7.830;2024-01-15T10:46:44;3.10;99.90
2729;DHT22;1372;47.956;7.830;2024-01-15T10:49:14;3.10;99.90
2729;DHT22;1372;47.956;7.830;2024-01-15T10:51:51;3.10;99.90
2729;DHT22;1372;47.956;7.830;2024-01-15T10:54:23;3.10;99.90
2729;DHT22;1372;47.956;7.830;2024-01-15T10:56:53;3.10;99.90
2729;DHT22;1372;47.956;7.830;2024-01-15T10:59:24;3.00;99.90
2729;DHT22;1372;47.956;7.830;2024-01-15T11:01:54;3.10;99.90
2729;DHT22;1372;47.956;7.830;2024-01-15T11:04:23;3.10;99.90
2729;DHT22;1372;47.956;7.830;2024-01-15T11:06:56;3.00;99.90
2729;DHT22;1372;47.956;7.830;2024-01-15T11:09:25;3.10;99.90
2729;DHT22;1372;47.956;7.830;2024-01-15T11:12:09;3.00;99.90
2729;DHT22;1372;47.956;7.830;2024-01-15T11:14:40;2.90;99.90
2729;DHT22;1372;47.956;7.830;2024-01-15T11:17:11;3.00;99.90
2729;DHT22;1372;47.956;7.830;2024-01-15T11:19:43;2.90;99.90
2729;DHT22;1372;47.956;7.830;2024-01-15T11:22:48;2.80;99.90
2729;DHT22;1372;47.956;7.830;2024-01-15T11:25:18;2.90;99.90
2729;DHT22;1372;47.956;7.830;2024-01-15T11:27:51;2.80;99.90
2729;DHT22;1372;47.956;7.830;2024-01-15T11:30:25;2.70;99.90
2729;DHT22;1372;47.956;7.830;2024-01-15T11:32:58;2.80;99.90
2729;DHT22;1372;47.956;7.830;2024-01-15T11:35:48;2.90;99.90
2729;DHT22;1372;47.956;7.830;2024-01-15T11:38:28;2.80;99.90
2729;DHT22;1372;47.956;7.830;2024-01-15T11:40:58;2.90;99.90
2729;DHT22;1372;47.956;7.830;2024-01-15T11:43:29;2.90;99.90
2729;DHT22;1372;47.956;7.830;2024-01-15T11:46:02;2.90;99.90
2729;DHT22;1372;47.956;7.830;2024-01-15T11:48:42;3.00;99.90
2729;DHT22;1372;47.956;7.830;2024-01-15T11:51:13;3.00;99.90
2729;DHT22;1372;47.956;7.830;2024-01-15T11:53:48;3.00;99.90
2729;DHT22;1372;47.956;7.830;2024-01-15T11:56:17;3.00;99.90
2729;DHT22;1372;47.956;7.830;2024-01-15T11:58:46;3.00;99.90
2729;DHT22;1372;47.956;7.830;2024-01-15T12:01:18;3.00;99.90
2729;DHT22;1372;47.956;7.830;2024-01-15T12:03:48;3.10;99.90
2729;DHT22;1372;47.956;7.830;2024-01-15T12:06:17;3.10;99.90
2729;DHT22;1372;47.956;7.830;2024-01-15T12:08:47;3.00;99.90
2729;DHT22;1372;47.956;7.830;2024-01-15T12:11:17;3.10;99.90
2729;DHT22;1372;47.956;7.830;2024-01-15T12:13:48;3.00;99.90
2729;DHT22;1372;47.956;7.830;2024-01-15T12:16:19;3.00;99.90
2729;DHT22;1372;47.956;7.830;2024-01-15T12:18:48;3.00;99.90
2729;DHT22;1372;47.956;7.830;2024-01-15T12:21:18;3.00;99.90
2729;DHT22;1372;47.956;7.830;2024-01-15T12:23:49;3.10;99.90
2729;DHT22;1372;47.956;7.830;2024-01-15T12:26:19;3.20;99.90
2729;DHT22;1372;47.956;7.830;2024-01-15T12:28:51;3.20;99.90
2729;DHT22;1372;47.956;7.830;2024-01-15T12:31:23;3.20;99.90
2729;DHT22;1372;47.956;7.830;2024-01-15T12:33:52;3.20;99.90
2729;DHT22;1372;47.956;7.830;2024-01-15T12:36:21;3.30;99.90
2729;DHT22;1372;47.956;7.830;2024-01-15T12:38:51;3.20;99.90
2729;DHT22;1372;47.956;7.830;2024-01-15T12:41:20;3.30;99.90
2729;DHT22;1372;47.956;7.830;2024-01-15T12:43:50;3.30;99.90
2729;DHT22;1372;47.956;7.830;2024-01-15T12:46:21;3.40;99.90
2729;DHT22;1372;47.956;7.830;2024-01-15T12:48:50;3.30;99.90
2729;DHT22;1372;47.956;7.830;2024-01-15T12:51:24;3.20;99.90
2729;DHT22;1372;47.956;7.830;2024-01-15T12:53:55;3.20;99.90
2729;DHT22;1372;47.956;7.830;2024-01-15T12:56:24;3.30;99.90
2729;DHT22;1372;47.956;7.830;2024-01-15T12:58:53;3.20;99.90
2729;DHT22;1372;47.956;7.830;2024-01-15T13:01:22;3.30;99.90
2729;DHT22;1372;47.956;7.830;2024-01-15T13:03:51;3.30;99.90
2729;DHT22;1372;47.956;7.830;2024-01-15T13:06:20;3.30;99.90
2729;DHT22;1372;47.956;7.830;2024-01-15T13:08:51;3.30;99.90
2729;DHT22;1372;47.956;7.830;2024-01-15T13:11:23;3.30;99.90
2729;DHT22;1372;47.956;7.830;2024-01-15T13:13:53;3.20;99.90
2729;DHT22;1372;47.956;7.830;2024-01-15T13:16:22;3.20;99.90
2729;DHT22;1372;47.956;7.830;2024-01-15T13:18:52;3.10;99.90
2729;DHT22;1372;47.956;7.830;2024-01-15T13:21:21;3.20;99.90
2729;DHT22;1372;47.956;7.830;2024-01-15T13:23:50;3.30;99.90
2729;DHT22;1372;47.956;7.830;2024-01-15T13:26:21;3.40;99.90
2729;DHT22;1372;47.956;7.830;2024-01-15T13:28:50;3.30;99.90
2729;DHT22;1372;47.956;7.830;2024-01-15T13:31:20;3.30;99.90
2729;DHT22;1372;47.956;7.830;2024-01-15T13:33:49;3.30;99.90
2729;DHT22;1372;47.956;7.830;2024-01-15T13:36:18;3.20;99.90
2729;DHT22;1372;47.956;7.830;2024-01-15T13:38:49;3.20;99.90
2729;DHT22;1372;47.956;7.830;2024-01-15T13:41:18;3.20;99.90
2729;DHT22;1372;47.956;7.830;2024-01-15T13:43:53;3.20;99.90
2729;DHT22;1372;47.956;7.830;2024-01-15T13:46:24;3.20;99.90
2729;DHT22;1372;47.956;7.830;2024-01-15T13:48:54;3.00;99.90
2729;DHT22;1372;47.956;7.830;2024-01-15T13:51:23;3.00;99.90
2729;DHT22;1372;47.956;7.830;2024-01-15T13:53:52;3.00;99.90
2729;DHT22;1372;47.956;7.830;2024-01-15T13:56:21;3.00;99.90
2729;DHT22;1372;47.956;7.830;2024-01-15T13:58:54;3.00;99.90
2729;DHT22;1372;47.956;7.830;2024-01-15T14:01:23;2.90;99.90
2729;DHT22;1372;47.956;7.830;2024-01-15T14:03:52;2.80;99.90
2729;DHT22;1372;47.956;7.830;2024-01-15T14:06:24;2.90;99.90
2729;DHT22;1372;47.956;7.830;2024-01-15T14:08:53;2.90;99.90
2729;DHT22;1372;47.956;7.830;2024-01-15T14:11:22;2.90;99.90
2729;DHT22;1372;47.956;7.830;2024-01-15T14:13:51;2.90;99.90
2729;DHT22;1372;47.956;7.830;2024-01-15T14:16:23;2.80;99.90
2729;DHT22;1372;47.956;7.830;2024-01-15T14:18:54;2.80;99.90
2729;DHT22;1372;47.956;7.830;2024-01-15T14:21:26;2.70;99.90
2729;DHT22;1372;47.956;7.830;2024-01-15T14:23:55;2.80;99.90
2729;DHT22;1372;47.956;7.830;2024-01-15T14:26:24;2.80;99.90
2729;DHT22;1372;47.956;7.830;2024-01-15T14:28:52;2.80;99.90
2729;DHT22;1372;47.956;7.830;2024-01-15T14:31:23;2.80;99.90
2729;DHT22;1372;47.956;7.830;2024-01-15T14:33:53;2.70;99.90
2729;DHT22;1372;47.956;7.830;2024-01-15T14:36:24;2.80;99.90
2729;DHT22;1372;47.956;7.830;2024-01-15T14:38:54;2.80;99.90
2729;DHT22;1372;47.956;7.830;2024-01-15T14:41:22;2.80;99.90
2729;DHT22;1372;47.956;7.830;2024-01-15T14:43:52;2.80;99.90
2729;DHT22;1372;47.956;7.830;2024-01-15T14:46:20;2.70;99.90
2729;DHT22;1372;47.956;7.830;2024-01-15T14:48:53;2.70;99.90
2729;DHT22;1372;47.956;7.830;2024-01-15T14:51:21;2.60;99.90
2729;DHT22;1372;47.956;7.830;2024-01-15T14:53:50;2.60;99.90
2729;DHT22;1372;47.956;7.830;2024-01-15T14:56:19;2.60;99.90
2729;DHT22;1372;47.956;7.830;2024-01-15T14:58:49;2.60;99.90
2729;DHT22;1372;47.956;7.830;2024-01-15T15:01:20;2.70;99.90
2729;DHT22;1372;47.956;7.830;2024-01-15T15:03:50;2.70;99.90
2729;DHT22;1372;47.956;7.830;2024-01-15T15:06:21;2.70;99.90
2729;DHT22;1372;47.956;7.830;2024-01-15T15:08:54;2.70;99.90
2729;DHT22;1372;47.956;7.830;2024-01-15T15:11:26;2.70;99.90
2729;DHT22;1372;47.956;7.830;2024-01-15T15:13:55;2.70;99.90
2729;DHT22;1372;47.956;7.830;2024-01-15T15:16:24;2.70;99.90
2729;DHT22;1372;47.956;7.830;2024-01-15T15:18:54;2.80;99.90
2729;DHT22;1372;47.956;7.830;2024-01-15T15:21:26;2.70;99.90
2729;DHT22;1372;47.956;7.830;2024-01-15T15:23:56;2.80;99.90
2729;DHT22;1372;47.956;7.830;2024-01-15T15:26:24;2.70;99.90
2729;DHT22;1372;47.956;7.830;2024-01-15T15:28:53;2.60;99.90
2729;DHT22;1372;47.956;7.830;2024-01-15T15:31:22;2.60;99.90
2729;DHT22;1372;47.956;7.830;2024-01-15T15:33:51;2.70;99.90
2729;DHT22;1372;47.956;7.830;2024-01-15T15:36:20;2.70;99.90
2729;DHT22;1372;47.956;7.830;2024-01-15T15:38:50;2.60;99.90
2729;DHT22;1372;47.956;7.830;2024-01-15T15:41:23;2.70;99.90
2729;DHT22;1372;47.956;7.830;2024-01-15T15:43:55;2.70;99.90
2729;DHT22;1372;47.956;7.830;2024-01-15T15:46:25;2.60;99.90
2729;DHT22;1372;47.956;7.830;2024-01-15T15:48:56;2.60;99.90
2729;DHT22;1372;47.956;7.830;2024-01-15T15:51:28;2.70;99.90
2729;DHT22;1372;47.956;7.830;2024-01-15T15:53:59;2.60;99.90
2729;DHT22;1372;47.956;7.830;2024-01-15T15:56:30;2.50;99.90
2729;DHT22;1372;47.956;7.830;2024-01-15T15:59:06;2.60;99.90
2729;DHT22;1372;47.956;7.830;2024-01-15T16:01:39;2.50;99.90
2729;DHT22;1372;47.956;7.830;2024-01-15T16:04:10;2.50;99.90
2729;DHT22;1372;47.956;7.830;2024-01-15T16:06:39;2.40;99.90
2729;DHT22;1372;47.956;7.830;2024-01-15T16:09:15;2.40;99.90
2729;DHT22;1372;47.956;7.830;2024-01-15T16:11:43;2.50;99.90
2729;DHT22;1372;47.956;7.830;2024-01-15T16:14:14;2.50;99.90
2729;DHT22;1372;47.956;7.830;2024-01-15T16:16:43;2.50;99.90
2729;DHT22;1372;47.956;7.830;2024-01-15T16:19:48;2.40;99.90
2729;DHT22;1372;47.956;7.830;2024-01-15T16:22:37;2.50;99.90
2729;DHT22;1372;47.956;7.830;2024-01-15T16:25:28;2.50;99.90
2729;DHT22;1372;47.956;7.830;2024-01-15T16:27:58;2.40;99.90
2729;DHT22;1372;47.956;7.830;2024-01-15T16:30:27;2.50;99.90
2729;DHT22;1372;47.956;7.830;2024-01-15T16:33:02;2.40;99.90